Galena, IL

1:23 PM CST on March 01, 2015 (GMT -0600)
Guilford Township | Change Station
CLOSE
Current Station
Personal Weather Station
Location: Elizabeth, IL
Elevation: 1102 ft
Nearby Weather Stations

Elev 1102 ft 42.40 °N, 90.27 °W | Updated 31 seconds ago

Mostly Cloudy
Mostly Cloudy
26.1 °F
Feels Like 14 °F
N
15.0
Wind Variable Wind from West
Gusts 23.0 mph

Today
High -- | Low -- °F
--% Chance of Precip.
Yesterday
High -- | Low -- °F
Precip. -- in
6:36 AM 5:50 PM
Waxing Gibbous, 86% visible
Pressure 30.27 in
Visibility 10.0 miles
Clouds Scattered Clouds 2100 ft
Windchill 14 °F
Dew Point 11 °F
Humidity 53%
Rainfall 0.00 in
Snow Depth Not available.
UV 4 out of 12
Pollen .40 out of 12
Air Quality Not available.
Flu Activity Not available.
METAR KPVB 011915Z AUTO 21015KT 10SM SCT021 M03/M08 A3027 RMK AO1 T10351080

More Conditions Fewer Conditions

Pressure 30.27 in
Visibility 10.0 miles
Clouds Scattered Clouds 2100 ft
Windchill 14 °F
Dew Point 11 °F
Humidity 53%
Rainfall 0.00 in
Snow Depth Not available.
UV 4 out of 12
Pollen .40 out of 12
Air Quality Not available.
Flu Activity Not available.
METAR KPVB 011915Z AUTO 21015KT 10SM SCT021 M03/M08 A3027 RMK AO1 T10351080

More Conditions Fewer Conditions

10-Day Weather Forecast

Almanac

Astronomy

Mar. 01, 2015 Rise Set
Actual Time
Civil Twilight
Nautical Twilight
Astronomical Twilight
Moon
Length of Visible Light
Length of Day
Tomorrow will be .
, % of the Moon is Illuminated

Today's Extremes

State Highs State Lows

Community

WunderPhotos

Upload Photos

1,801,491 photos uploaded!

WunderBlogs® & News

Nearby

Air Quality

  Air Quality AQ Index Pollutant
Not available.

Snow Depth

Station Depth Elevation

Earthquake Activity

City Distance Mag. Time & Date
Minimum magnitude displayed is 2.5.

Coastal Water Temperatures

Place Temperature

Nearby Weather Stations